Flight Track Log - Related Links

Times and Time Zones

All times are in EDT time to prevent confusion due to time zone crossing. See the N43998 flight status page for this flight to view local times or setup timezone preferences in your user account.

Time Position Orientation Groundspeed Altitude Reporting Facility
EDT Latitude Longitude Course Direction KTS MPH feet Rate Location/Type
Sun 07:32:51 PM 33.1617 -87.6269 180° South 98 113 1,600  Level Atlanta Center
Sun 07:34:28 PM 33.1200 -87.6228 175° South 89 102 2,500 419 Climbing Atlanta Center
Sun 07:35:43 PM 33.0908 -87.6289 190° South 95 109 2,800 444 Climbing Atlanta Center
Sun 07:36:43 PM 33.0658 -87.6231 169° South 95 109 3,500 550 Climbing Atlanta Center
Sun 07:37:00 PM 33.0205 -87.6156 180° South  Level Estimated
Sun 07:37:43 PM 33.0408 -87.6244 183° South 95 109 3,900  Level Atlanta Center
Sun 07:38:00 PM 32.9872 -87.6157 180° South  Level FlightAware Approximate
Sun 07:38:43 PM 33.0136 -87.6258 182° South 101 116 4,400  Level Atlanta Center
Sun 07:39:43 PM 32.9844 -87.6222 174° South 106 122 5,000 550 Climbing Atlanta Center
Sun 07:40:43 PM 32.9553 -87.6186 174° South 106 122 5,500 450 Climbing Atlanta Center
Sun 07:41:43 PM 32.9325 -87.6150 172° South 101 116 5,900 300 Climbing Atlanta Center
Sun 07:42:43 PM 32.8989 -87.6186 185° South 107 123 6,100 50 Climbing Atlanta Center
Sun 07:43:43 PM 32.8633 -87.6269 191° South 117 135 6,000 -50 Descending Atlanta Center
Sun 07:44:43 PM 32.8236 -87.6303 184° South 130 150 6,000  Level Atlanta Center
Sun 07:45:43 PM 32.7903 -87.6217 168° South 130 150 6,000  Level Atlanta Center
Sun 07:46:43 PM 32.7550 -87.6203 178° South 130 150 6,000  Level Atlanta Center
Sun 07:47:43 PM 32.7194 -87.6236 185° South 135 155 6,000 -50 Level Atlanta Center
Sun 07:48:43 PM 32.6817 -87.6294 187° South 141 162 5,900  Descending Atlanta Center
Sun 07:49:43 PM 32.6461 -87.6331 185° South 141 162 6,000 50 Climbing Atlanta Center
Sun 07:50:43 PM 32.6083 -87.6364 184° South 141 162 6,000 -50 Level Atlanta Center
Sun 07:51:43 PM 32.5750 -87.6400 185° South 141 162 5,900  Descending Atlanta Center
Sun 07:52:43 PM 32.5369 -87.6483 190° South 141 162 6,000 50 Climbing Atlanta Center
Sun 07:53:43 PM 32.5017 -87.6494 182° South 141 162 6,000  Level Atlanta Center
Sun 07:54:43 PM 32.4614 -87.6625 195° South 141 162 6,000  Level Atlanta Center
Sun 07:55:43 PM 32.4258 -87.6683 188° South 141 162 6,000  Level Atlanta Center
Sun 07:56:43 PM 32.3883 -87.6717 184° South 141 162 6,000  Level Atlanta Center
Sun 07:57:43 PM 32.3525 -87.6778 188° South 141 162 6,000  Level Atlanta Center
Sun 07:58:43 PM 32.3150 -87.6786 181° South 141 162 6,000  Level Atlanta Center
Sun 07:59:43 PM 32.2814 -87.6847 189° South 141 162 6,000 -50 Level Atlanta Center
Sun 08:00:43 PM 32.2439 -87.6856 181° South 141 162 5,900  Descending Atlanta Center
Sun 08:01:43 PM 32.2061 -87.6864 181° South 141 162 6,000 50 Climbing Atlanta Center
Sun 08:02:43 PM 32.1706 -87.6900 185° South 141 162 6,000  Level Atlanta Center
Sun 08:03:43 PM 32.1350 -87.6908 181° South 141 162 6,000  Level Atlanta Center
Sun 08:04:43 PM 32.0975 -87.6942 184° South 141 162 6,000  Level Atlanta Center
Sun 08:05:43 PM 32.0619 -87.6978 185° South 141 162 6,000 -50 Level Atlanta Center
Sun 08:06:43 PM 32.0242 -87.7011 184° South 141 162 5,900 -50 Descending Atlanta Center
Sun 08:07:43 PM 31.9886 -87.7044 185° South 141 162 5,900  Level Atlanta Center
Sun 08:08:43 PM 31.9531 -87.7081 185° South 141 162 5,900  Level Atlanta Center
Sun 08:09:43 PM 31.9156 -87.7089 181° South 141 162 5,900 50 Level Atlanta Center
Sun 08:10:43 PM 31.8797 -87.7122 185° South 141 162 6,000 50 Climbing Atlanta Center
Sun 08:11:43 PM 31.8442 -87.7181 188° South 141 162 6,000 -50 Level Atlanta Center
Sun 08:12:43 PM 31.8067 -87.7192 181° South 141 162 5,900 -50 Descending Atlanta Center
Sun 08:13:43 PM 31.7711 -87.7200 181° South 141 162 5,900 50 Level Atlanta Center
Sun 08:14:43 PM 31.7333 -87.7233 184° South 141 162 6,000  Climbing Atlanta Center
Sun 08:16:14 PM 31.6836 -87.7247 181° South 135 155 5,900 -39 Descending Houston Center
Sun 08:17:16 PM 31.6378 -87.7281 184° South 137 158 5,900 48 Level Houston Center
Sun 08:18:18 PM 31.6017 -87.7289 181° South 133 153 6,000 49 Climbing Houston Center
Sun 08:19:19 PM 31.5647 -87.7292 180° South 132 152 6,000  Level Houston Center
Sun 08:20:21 PM 31.5272 -87.7306 182° South 133 153 6,000  Level Houston Center
Sun 08:21:23 PM 31.4900 -87.7303 180° South 134 154 6,000 -48 Level Houston Center
Sun 08:22:25 PM 31.4533 -87.7303 180° South 133 153 5,900  Descending Houston Center
Sun 08:23:26 PM 31.4167 -87.7308 181° South 132 152 6,000 49 Climbing Houston Center
Sun 08:24:28 PM 31.3814 -87.7289 177° South 129 148 6,000  Level Houston Center
Sun 08:25:30 PM 31.3369 -87.7269 178° South 131 151 6,000 49 Level Houston Center
Sun 08:26:31 PM 31.3000 -87.7250 177° South 132 152 6,100  Climbing Houston Center
Sun 08:27:33 PM 31.2628 -87.7222 176° South 133 153 6,000 -97 Descending Houston Center
Sun 08:28:35 PM 31.2256 -87.7208 178° South 134 154 5,900 -49 Descending Houston Center
Sun 08:29:36 PM 31.1875 -87.7169 175° South 135 155 5,900 49 Level Houston Center
Sun 08:30:38 PM 31.1503 -87.7128 175° South 135 155 6,000  Climbing Houston Center
Sun 08:31:40 PM 31.1133 -87.7086 174° South 132 152 5,900  Descending Houston Center
Sun 08:32:41 PM 31.0758 -87.7033 173° South 134 154 6,000 -49 Climbing Houston Center
Sun 08:33:43 PM 31.0300 -87.6981 174° South 135 155 5,800 -244 Descending Houston Center
Sun 08:34:44 PM 30.9883 -87.6953 177° South 144 166 5,500 -341 Descending Houston Center
Sun 08:35:46 PM 30.9464 -87.6917 176° South 149 171 5,100 -244 Descending Houston Center
Sun 08:36:47 PM 30.9053 -87.6900 178° South 149 171 5,000 -98 Descending Houston Center
Sun 08:37:49 PM 30.8653 -87.6875 177° South 145 167 4,900  Descending Houston Center
Sun 08:38:50 PM 30.8278 -87.6850 177° South 139 160 5,000  Climbing Houston Center
Sun 08:39:52 PM 30.7906 -87.6836 178° South 136 157 4,900  Descending Houston Center
Sun 08:40:53 PM 30.7528 -87.6814 177° South 135 155 5,000 49 Climbing Houston Center
Sun 08:41:55 PM 30.7072 -87.6789 177° South 135 155 5,000 -49 Level Houston Center
Sun 08:42:56 PM 30.6683 -87.6783 179° South 138 159 4,900 -244 Descending Houston Center
Sun 08:43:58 PM 30.6281 -87.6803 182° South 140 161 4,500 -390 Descending Houston Center
Sun 08:44:59 PM 30.5861 -87.6833 184° South 144 166 4,100 -446 Descending Houston Center
Sun 08:46:53 PM 30.4994 -87.6947 186° South 150 173 3,200 -462 Descending Jacksonville Center
Sun 08:47:48 PM 30.4661 -87.6953 181° South 142 163 2,800 -157 Descending Jacksonville Center
Sun 08:48:48 PM 30.4403 -87.6653 135° Southeast 126 145 2,900 99 Climbing Jacksonville Center
Sun 08:49:49 PM 30.4161 -87.6397 138° Southeast 122 140 3,000 98 Climbing Jacksonville Center
Sun 08:50:50 PM 30.3900 -87.6097 135° Southeast 123 142 3,100 98 Climbing Jacksonville Center

Login

Don't have an account? Register now (free) for customized features, flight alerts, and more!